sensor_id;sensor_type;location;lat;lon;timestamp;P1;durP1;ratioP1;P2;durP2;ratioP2
1545;SDS011;766;51.502;9.752;2023-06-14T00:00:05;4.57;;;2.60;;
1545;SDS011;766;51.502;9.752;2023-06-14T00:02:35;4.53;;;2.50;;
1545;SDS011;766;51.502;9.752;2023-06-14T00:05:04;7.13;;;2.50;;
1545;SDS011;766;51.502;9.752;2023-06-14T00:07:33;6.78;;;2.17;;
1545;SDS011;766;51.502;9.752;2023-06-14T00:10:02;4.47;;;2.13;;
1545;SDS011;766;51.502;9.752;2023-06-14T00:12:33;3.17;;;2.10;;
1545;SDS011;766;51.502;9.752;2023-06-14T00:15:01;5.85;;;1.77;;
1545;SDS011;766;51.502;9.752;2023-06-14T00:17:30;4.10;;;2.35;;
1545;SDS011;766;51.502;9.752;2023-06-14T00:20:01;4.53;;;2.38;;
1545;SDS011;766;51.502;9.752;2023-06-14T00:22:31;6.88;;;2.28;;
1545;SDS011;766;51.502;9.752;2023-06-14T00:25:00;4.85;;;2.03;;
1545;SDS011;766;51.502;9.752;2023-06-14T00:27:50;6.03;;;1.95;;
1545;SDS011;766;51.502;9.752;2023-06-14T00:30:19;5.22;;;2.22;;
1545;SDS011;766;51.502;9.752;2023-06-14T00:32:47;2.65;;;2.05;;
1545;SDS011;766;51.502;9.752;2023-06-14T00:35:16;9.45;;;2.47;;
1545;SDS011;766;51.502;9.752;2023-06-14T00:37:45;5.15;;;2.58;;
1545;SDS011;766;51.502;9.752;2023-06-14T00:40:14;6.13;;;2.30;;
1545;SDS011;766;51.502;9.752;2023-06-14T00:42:43;6.05;;;2.33;;
1545;SDS011;766;51.502;9.752;2023-06-14T00:45:16;3.47;;;1.98;;
1545;SDS011;766;51.502;9.752;2023-06-14T00:47:44;6.53;;;2.45;;
1545;SDS011;766;51.502;9.752;2023-06-14T00:50:14;5.47;;;2.30;;
1545;SDS011;766;51.502;9.752;2023-06-14T00:52:44;4.72;;;2.13;;
1545;SDS011;766;51.502;9.752;2023-06-14T00:55:12;2.38;;;1.67;;
1545;SDS011;766;51.502;9.752;2023-06-14T00:57:41;7.20;;;2.42;;
1545;SDS011;766;51.502;9.752;2023-06-14T01:00:10;5.03;;;2.50;;
1545;SDS011;766;51.502;9.752;2023-06-14T01:02:41;5.75;;;2.05;;
1545;SDS011;766;51.502;9.752;2023-06-14T01:05:09;6.00;;;2.60;;
1545;SDS011;766;51.502;9.752;2023-06-14T01:07:43;4.88;;;2.15;;
1545;SDS011;766;51.502;9.752;2023-06-14T01:13:11;4.47;;;2.33;;
1545;SDS011;766;51.502;9.752;2023-06-14T01:15:44;9.60;;;2.33;;
1545;SDS011;766;51.502;9.752;2023-06-14T01:18:16;5.22;;;2.60;;
1545;SDS011;766;51.502;9.752;2023-06-14T01:20:46;5.53;;;2.15;;
1545;SDS011;766;51.502;9.752;2023-06-14T01:23:18;3.85;;;2.50;;
1545;SDS011;766;51.502;9.752;2023-06-14T01:25:48;3.28;;;2.05;;
1545;SDS011;766;51.502;9.752;2023-06-14T01:28:20;5.47;;;2.38;;
1545;SDS011;766;51.502;9.752;2023-06-14T01:30:50;8.13;;;3.33;;
1545;SDS011;766;51.502;9.752;2023-06-14T01:33:22;4.38;;;1.90;;
1545;SDS011;766;51.502;9.752;2023-06-14T01:35:53;3.53;;;2.25;;
1545;SDS011;766;51.502;9.752;2023-06-14T01:38:25;4.28;;;2.20;;
1545;SDS011;766;51.502;9.752;2023-06-14T01:40:55;2.80;;;2.10;;
1545;SDS011;766;51.502;9.752;2023-06-14T01:43:26;4.47;;;2.30;;
1545;SDS011;766;51.502;9.752;2023-06-14T01:45:58;8.02;;;2.20;;
1545;SDS011;766;51.502;9.752;2023-06-14T01:48:27;4.25;;;2.42;;
1545;SDS011;766;51.502;9.752;2023-06-14T01:50:55;3.13;;;2.50;;
1545;SDS011;766;51.502;9.752;2023-06-14T01:53:25;5.32;;;2.65;;
1545;SDS011;766;51.502;9.752;2023-06-14T01:55:53;6.07;;;2.65;;
1545;SDS011;766;51.502;9.752;2023-06-14T01:58:22;5.00;;;2.50;;
1545;SDS011;766;51.502;9.752;2023-06-14T02:00:51;7.60;;;2.38;;
1545;SDS011;766;51.502;9.752;2023-06-14T02:03:22;4.57;;;2.67;;
1545;SDS011;766;51.502;9.752;2023-06-14T02:05:51;5.80;;;2.22;;
1545;SDS011;766;51.502;9.752;2023-06-14T02:08:21;5.57;;;2.28;;
1545;SDS011;766;51.502;9.752;2023-06-14T02:10:51;3.28;;;2.80;;
1545;SDS011;766;51.502;9.752;2023-06-14T02:13:19;4.10;;;2.35;;
1545;SDS011;766;51.502;9.752;2023-06-14T02:15:48;3.85;;;1.70;;
1545;SDS011;766;51.502;9.752;2023-06-14T02:18:21;4.75;;;2.30;;
1545;SDS011;766;51.502;9.752;2023-06-14T02:20:50;2.30;;;2.00;;
1545;SDS011;766;51.502;9.752;2023-06-14T02:23:18;3.03;;;2.20;;
1545;SDS011;766;51.502;9.752;2023-06-14T02:25:47;2.83;;;2.15;;
1545;SDS011;766;51.502;9.752;2023-06-14T02:28:17;5.22;;;2.35;;
1545;SDS011;766;51.502;9.752;2023-06-14T02:30:47;6.05;;;2.30;;
1545;SDS011;766;51.502;9.752;2023-06-14T02:33:15;2.42;;;1.92;;
1545;SDS011;766;51.502;9.752;2023-06-14T02:35:44;7.22;;;2.25;;
1545;SDS011;766;51.502;9.752;2023-06-14T02:38:13;4.22;;;2.30;;
1545;SDS011;766;51.502;9.752;2023-06-14T02:40:41;2.85;;;2.25;;
1545;SDS011;766;51.502;9.752;2023-06-14T02:43:09;6.50;;;2.08;;
1545;SDS011;766;51.502;9.752;2023-06-14T02:45:39;5.03;;;1.80;;
1545;SDS011;766;51.502;9.752;2023-06-14T02:48:08;3.65;;;2.13;;
1545;SDS011;766;51.502;9.752;2023-06-14T02:50:36;4.45;;;2.47;;
1545;SDS011;766;51.502;9.752;2023-06-14T02:53:08;3.53;;;2.20;;
1545;SDS011;766;51.502;9.752;2023-06-14T02:55:37;5.43;;;2.70;;
1545;SDS011;766;51.502;9.752;2023-06-14T02:58:06;4.03;;;2.38;;
1545;SDS011;766;51.502;9.752;2023-06-14T03:00:35;4.07;;;2.30;;
1545;SDS011;766;51.502;9.752;2023-06-14T03:03:07;2.65;;;2.10;;
1545;SDS011;766;51.502;9.752;2023-06-14T03:05:41;2.60;;;2.05;;
1545;SDS011;766;51.502;9.752;2023-06-14T03:08:14;6.50;;;2.80;;
1545;SDS011;766;51.502;9.752;2023-06-14T03:10:43;4.13;;;2.33;;
1545;SDS011;766;51.502;9.752;2023-06-14T03:13:12;6.22;;;2.35;;
1545;SDS011;766;51.502;9.752;2023-06-14T03:15:40;4.25;;;2.65;;
1545;SDS011;766;51.502;9.752;2023-06-14T03:18:11;3.00;;;1.98;;
1545;SDS011;766;51.502;9.752;2023-06-14T03:20:39;4.47;;;2.30;;
1545;SDS011;766;51.502;9.752;2023-06-14T03:23:09;5.60;;;2.22;;
1545;SDS011;766;51.502;9.752;2023-06-14T03:25:38;3.15;;;2.28;;
1545;SDS011;766;51.502;9.752;2023-06-14T03:28:08;4.43;;;2.30;;
1545;SDS011;766;51.502;9.752;2023-06-14T03:30:40;5.10;;;2.17;;
1545;SDS011;766;51.502;9.752;2023-06-14T03:33:35;5.18;;;2.30;;
1545;SDS011;766;51.502;9.752;2023-06-14T03:36:03;4.68;;;2.17;;
1545;SDS011;766;51.502;9.752;2023-06-14T03:38:33;5.03;;;2.03;;
1545;SDS011;766;51.502;9.752;2023-06-14T03:41:01;2.50;;;2.10;;
1545;SDS011;766;51.502;9.752;2023-06-14T03:43:30;4.18;;;2.13;;
1545;SDS011;766;51.502;9.752;2023-06-14T03:45:58;9.52;;;2.22;;
1545;SDS011;766;51.502;9.752;2023-06-14T03:48:26;3.83;;;2.13;;
1545;SDS011;766;51.502;9.752;2023-06-14T03:50:56;4.35;;;2.40;;
1545;SDS011;766;51.502;9.752;2023-06-14T03:53:27;2.30;;;2.10;;
1545;SDS011;766;51.502;9.752;2023-06-14T03:55:56;2.55;;;2.03;;
1545;SDS011;766;51.502;9.752;2023-06-14T03:58:26;2.28;;;1.90;;
1545;SDS011;766;51.502;9.752;2023-06-14T04:00:55;7.25;;;2.38;;
1545;SDS011;766;51.502;9.752;2023-06-14T04:03:24;3.63;;;2.05;;
1545;SDS011;766;51.502;9.752;2023-06-14T04:05:58;3.58;;;1.92;;
1545;SDS011;766;51.502;9.752;2023-06-14T04:08:27;4.65;;;2.75;;
1545;SDS011;766;51.502;9.752;2023-06-14T04:10:55;13.48;;;3.50;;
1545;SDS011;766;51.502;9.752;2023-06-14T04:13:23;17.83;;;3.55;;
1545;SDS011;766;51.502;9.752;2023-06-14T04:15:51;23.00;;;3.33;;
1545;SDS011;766;51.502;9.752;2023-06-14T04:18:20;10.05;;;2.95;;
1545;SDS011;766;51.502;9.752;2023-06-14T04:20:50;26.45;;;5.88;;
1545;SDS011;766;51.502;9.752;2023-06-14T04:23:21;34.60;;;7.43;;
1545;SDS011;766;51.502;9.752;2023-06-14T04:25:50;35.47;;;6.90;;
1545;SDS011;766;51.502;9.752;2023-06-14T04:28:18;15.98;;;4.60;;
1545;SDS011;766;51.502;9.752;2023-06-14T04:30:52;17.08;;;3.35;;
1545;SDS011;766;51.502;9.752;2023-06-14T04:33:20;9.30;;;3.05;;
1545;SDS011;766;51.502;9.752;2023-06-14T04:35:52;6.90;;;2.15;;
1545;SDS011;766;51.502;9.752;2023-06-14T04:38:25;2.50;;;1.90;;
1545;SDS011;766;51.502;9.752;2023-06-14T04:40:55;3.17;;;1.95;;
1545;SDS011;766;51.502;9.752;2023-06-14T04:43:23;4.95;;;2.17;;
1545;SDS011;766;51.502;9.752;2023-06-14T04:45:52;5.45;;;2.40;;
1545;SDS011;766;51.502;9.752;2023-06-14T04:48:23;6.85;;;2.60;;
1545;SDS011;766;51.502;9.752;2023-06-14T04:50:51;4.85;;;2.33;;
1545;SDS011;766;51.502;9.752;2023-06-14T04:53:20;6.45;;;2.30;;
1545;SDS011;766;51.502;9.752;2023-06-14T04:55:51;7.35;;;2.35;;
1545;SDS011;766;51.502;9.752;2023-06-14T04:58:19;2.97;;;2.10;;
1545;SDS011;766;51.502;9.752;2023-06-14T05:00:47;2.75;;;1.90;;
1545;SDS011;766;51.502;9.752;2023-06-14T05:03:16;2.25;;;2.05;;
1545;SDS011;766;51.502;9.752;2023-06-14T05:05:48;4.35;;;2.35;;
1545;SDS011;766;51.502;9.752;2023-06-14T05:08:16;4.78;;;2.20;;
1545;SDS011;766;51.502;9.752;2023-06-14T05:10:47;3.38;;;2.25;;
1545;SDS011;766;51.502;9.752;2023-06-14T05:13:16;5.28;;;2.20;;
1545;SDS011;766;51.502;9.752;2023-06-14T05:15:45;2.40;;;1.98;;
1545;SDS011;766;51.502;9.752;2023-06-14T05:18:15;6.47;;;2.00;;
1545;SDS011;766;51.502;9.752;2023-06-14T05:20:44;7.15;;;2.10;;
1545;SDS011;766;51.502;9.752;2023-06-14T05:23:12;5.18;;;1.90;;
1545;SDS011;766;51.502;9.752;2023-06-14T05:25:42;6.35;;;2.28;;
1545;SDS011;766;51.502;9.752;2023-06-14T05:28:11;3.00;;;1.83;;
1545;SDS011;766;51.502;9.752;2023-06-14T05:30:42;4.50;;;2.10;;
1545;SDS011;766;51.502;9.752;2023-06-14T05:33:11;4.28;;;1.98;;
1545;SDS011;766;51.502;9.752;2023-06-14T05:35:40;2.85;;;1.95;;
1545;SDS011;766;51.502;9.752;2023-06-14T05:38:09;4.40;;;1.90;;
1545;SDS011;766;51.502;9.752;2023-06-14T05:40:37;4.32;;;1.95;;
1545;SDS011;766;51.502;9.752;2023-06-14T05:43:05;3.65;;;2.17;;
1545;SDS011;766;51.502;9.752;2023-06-14T05:45:34;4.53;;;2.20;;
1545;SDS011;766;51.502;9.752;2023-06-14T05:48:04;3.35;;;2.10;;
1545;SDS011;766;51.502;9.752;2023-06-14T05:50:33;5.07;;;2.03;;
1545;SDS011;766;51.502;9.752;2023-06-14T05:53:01;5.25;;;2.03;;
1545;SDS011;766;51.502;9.752;2023-06-14T05:55:30;3.42;;;2.55;;
1545;SDS011;766;51.502;9.752;2023-06-14T05:57:58;2.53;;;2.00;;
1545;SDS011;766;51.502;9.752;2023-06-14T06:00:30;2.85;;;2.13;;
1545;SDS011;766;51.502;9.752;2023-06-14T06:03:04;3.65;;;2.50;;
1545;SDS011;766;51.502;9.752;2023-06-14T06:05:34;9.02;;;2.60;;
1545;SDS011;766;51.502;9.752;2023-06-14T06:08:03;7.00;;;2.50;;
1545;SDS011;766;51.502;9.752;2023-06-14T06:10:31;5.07;;;2.25;;
1545;SDS011;766;51.502;9.752;2023-06-14T06:12:59;5.03;;;2.20;;
1545;SDS011;766;51.502;9.752;2023-06-14T06:15:28;4.88;;;2.35;;
1545;SDS011;766;51.502;9.752;2023-06-14T06:17:56;3.42;;;2.35;;
1545;SDS011;766;51.502;9.752;2023-06-14T06:20:26;4.35;;;2.60;;
1545;SDS011;766;51.502;9.752;2023-06-14T06:22:56;3.65;;;2.38;;
1545;SDS011;766;51.502;9.752;2023-06-14T06:25:25;4.93;;;2.10;;
1545;SDS011;766;51.502;9.752;2023-06-14T06:27:55;6.32;;;2.70;;
1545;SDS011;766;51.502;9.752;2023-06-14T06:30:23;3.83;;;2.38;;
1545;SDS011;766;51.502;9.752;2023-06-14T06:32:53;4.20;;;2.80;;
1545;SDS011;766;51.502;9.752;2023-06-14T06:35:22;5.82;;;2.42;;
1545;SDS011;766;51.502;9.752;2023-06-14T06:37:53;5.05;;;2.53;;
1545;SDS011;766;51.502;9.752;2023-06-14T06:40:22;6.25;;;2.55;;
1545;SDS011;766;51.502;9.752;2023-06-14T06:42:50;5.50;;;2.65;;
1545;SDS011;766;51.502;9.752;2023-06-14T06:45:19;3.83;;;2.88;;
1545;SDS011;766;51.502;9.752;2023-06-14T06:47:51;4.28;;;2.90;;
1545;SDS011;766;51.502;9.752;2023-06-14T06:50:19;4.10;;;2.63;;
1545;SDS011;766;51.502;9.752;2023-06-14T06:52:49;6.22;;;2.70;;
1545;SDS011;766;51.502;9.752;2023-06-14T06:55:19;3.40;;;2.42;;
1545;SDS011;766;51.502;9.752;2023-06-14T06:57:48;5.25;;;3.47;;
1545;SDS011;766;51.502;9.752;2023-06-14T07:00:19;5.00;;;2.90;;
1545;SDS011;766;51.502;9.752;2023-06-14T07:02:48;5.15;;;2.80;;
1545;SDS011;766;51.502;9.752;2023-06-14T07:05:16;4.68;;;2.75;;
1545;SDS011;766;51.502;9.752;2023-06-14T07:07:45;5.07;;;2.72;;
1545;SDS011;766;51.502;9.752;2023-06-14T07:10:14;5.57;;;3.15;;
1545;SDS011;766;51.502;9.752;2023-06-14T07:12:44;4.00;;;2.90;;
1545;SDS011;766;51.502;9.752;2023-06-14T07:15:12;6.00;;;2.80;;
1545;SDS011;766;51.502;9.752;2023-06-14T07:17:41;4.65;;;3.05;;
1545;SDS011;766;51.502;9.752;2023-06-14T07:20:10;8.18;;;3.20;;
1545;SDS011;766;51.502;9.752;2023-06-14T07:22:40;7.45;;;3.10;;
1545;SDS011;766;51.502;9.752;2023-06-14T07:25:09;3.78;;;3.33;;
1545;SDS011;766;51.502;9.752;2023-06-14T07:27:41;4.80;;;3.40;;
1545;SDS011;766;51.502;9.752;2023-06-14T07:30:11;3.60;;;3.00;;
1545;SDS011;766;51.502;9.752;2023-06-14T07:32:43;5.57;;;3.40;;
1545;SDS011;766;51.502;9.752;2023-06-14T07:35:17;4.93;;;2.72;;
1545;SDS011;766;51.502;9.752;2023-06-14T07:37:46;6.10;;;3.10;;
1545;SDS011;766;51.502;9.752;2023-06-14T07:40:14;3.45;;;2.70;;
1545;SDS011;766;51.502;9.752;2023-06-14T07:42:42;5.63;;;2.85;;
1545;SDS011;766;51.502;9.752;2023-06-14T07:45:13;6.18;;;2.80;;
1545;SDS011;766;51.502;9.752;2023-06-14T07:47:42;6.47;;;3.03;;
1545;SDS011;766;51.502;9.752;2023-06-14T07:50:10;4.57;;;2.95;;
1545;SDS011;766;51.502;9.752;2023-06-14T07:52:39;3.38;;;2.50;;
1545;SDS011;766;51.502;9.752;2023-06-14T07:55:07;4.28;;;2.88;;
1545;SDS011;766;51.502;9.752;2023-06-14T08:00:34;5.40;;;2.85;;
1545;SDS011;766;51.502;9.752;2023-06-14T08:03:03;4.97;;;2.78;;
1545;SDS011;766;51.502;9.752;2023-06-14T08:05:31;7.30;;;3.15;;
1545;SDS011;766;51.502;9.752;2023-06-14T08:08:01;5.00;;;2.72;;
1545;SDS011;766;51.502;9.752;2023-06-14T08:10:30;5.35;;;2.85;;
1545;SDS011;766;51.502;9.752;2023-06-14T08:12:59;5.97;;;2.92;;
1545;SDS011;766;51.502;9.752;2023-06-14T08:15:28;3.75;;;2.70;;
1545;SDS011;766;51.502;9.752;2023-06-14T08:17:58;3.55;;;2.92;;
1545;SDS011;766;51.502;9.752;2023-06-14T08:20:28;4.30;;;3.00;;
1545;SDS011;766;51.502;9.752;2023-06-14T08:22:57;4.78;;;2.70;;
1545;SDS011;766;51.502;9.752;2023-06-14T08:25:26;6.18;;;3.15;;
1545;SDS011;766;51.502;9.752;2023-06-14T08:27:54;3.95;;;3.00;;
1545;SDS011;766;51.502;9.752;2023-06-14T08:30:23;3.85;;;2.63;;
1545;SDS011;766;51.502;9.752;2023-06-14T08:32:51;5.22;;;2.45;;
1545;SDS011;766;51.502;9.752;2023-06-14T08:35:37;5.50;;;2.75;;
1545;SDS011;766;51.502;9.752;2023-06-14T08:38:06;5.20;;;2.63;;
1545;SDS011;766;51.502;9.752;2023-06-14T08:40:36;4.63;;;2.90;;
1545;SDS011;766;51.502;9.752;2023-06-14T08:43:05;4.45;;;2.88;;
1545;SDS011;766;51.502;9.752;2023-06-14T08:45:34;5.63;;;2.70;;
1545;SDS011;766;51.502;9.752;2023-06-14T08:48:03;4.70;;;2.53;;
1545;SDS011;766;51.502;9.752;2023-06-14T08:50:32;7.38;;;3.30;;
1545;SDS011;766;51.502;9.752;2023-06-14T08:53:05;3.03;;;2.67;;
1545;SDS011;766;51.502;9.752;2023-06-14T08:55:36;4.05;;;2.75;;
1545;SDS011;766;51.502;9.752;2023-06-14T08:58:12;3.22;;;2.70;;
1545;SDS011;766;51.502;9.752;2023-06-14T09:00:41;8.60;;;2.60;;
1545;SDS011;766;51.502;9.752;2023-06-14T09:03:11;4.75;;;2.50;;
1545;SDS011;766;51.502;9.752;2023-06-14T09:05:41;8.90;;;2.55;;
1545;SDS011;766;51.502;9.752;2023-06-14T09:08:11;3.60;;;2.60;;
1545;SDS011;766;51.502;9.752;2023-06-14T09:10:40;5.45;;;2.55;;
1545;SDS011;766;51.502;9.752;2023-06-14T09:13:08;4.13;;;2.60;;
1545;SDS011;766;51.502;9.752;2023-06-14T09:15:37;9.13;;;2.60;;
1545;SDS011;766;51.502;9.752;2023-06-14T09:18:05;4.38;;;2.50;;
1545;SDS011;766;51.502;9.752;2023-06-14T09:20:34;4.68;;;2.60;;
1545;SDS011;766;51.502;9.752;2023-06-14T09:23:03;7.47;;;2.70;;
1545;SDS011;766;51.502;9.752;2023-06-14T09:25:40;3.25;;;2.20;;
1545;SDS011;766;51.502;9.752;2023-06-14T09:28:11;3.47;;;2.42;;
1545;SDS011;766;51.502;9.752;2023-06-14T09:30:39;5.22;;;3.03;;
1545;SDS011;766;51.502;9.752;2023-06-14T09:33:08;6.38;;;2.42;;
1545;SDS011;766;51.502;9.752;2023-06-14T09:35:37;7.68;;;3.08;;
1545;SDS011;766;51.502;9.752;2023-06-14T09:38:05;3.85;;;3.53;;
1545;SDS011;766;51.502;9.752;2023-06-14T09:40:34;3.53;;;2.63;;
1545;SDS011;766;51.502;9.752;2023-06-14T09:43:09;6.07;;;2.58;;
1545;SDS011;766;51.502;9.752;2023-06-14T09:45:38;7.65;;;2.33;;
1545;SDS011;766;51.502;9.752;2023-06-14T09:48:07;2.67;;;2.47;;
1545;SDS011;766;51.502;9.752;2023-06-14T09:50:36;3.13;;;2.60;;
1545;SDS011;766;51.502;9.752;2023-06-14T09:53:05;4.55;;;2.20;;
1545;SDS011;766;51.502;9.752;2023-06-14T09:55:35;2.40;;;2.20;;
1545;SDS011;766;51.502;9.752;2023-06-14T09:58:05;4.53;;;2.67;;
1545;SDS011;766;51.502;9.752;2023-06-14T10:00:37;4.03;;;2.83;;
1545;SDS011;766;51.502;9.752;2023-06-14T10:03:11;6.25;;;2.88;;
1545;SDS011;766;51.502;9.752;2023-06-14T10:05:41;5.68;;;3.40;;
1545;SDS011;766;51.502;9.752;2023-06-14T10:08:14;2.63;;;2.08;;
1545;SDS011;766;51.502;9.752;2023-06-14T10:10:50;3.20;;;2.58;;
1545;SDS011;766;51.502;9.752;2023-06-14T10:13:18;5.70;;;2.47;;
1545;SDS011;766;51.502;9.752;2023-06-14T10:15:50;2.92;;;2.50;;
1545;SDS011;766;51.502;9.752;2023-06-14T10:18:26;2.67;;;2.20;;
1545;SDS011;766;51.502;9.752;2023-06-14T10:21:03;2.72;;;2.05;;
1545;SDS011;766;51.502;9.752;2023-06-14T10:23:37;6.78;;;2.33;;
1545;SDS011;766;51.502;9.752;2023-06-14T10:26:13;4.40;;;2.40;;
1545;SDS011;766;51.502;9.752;2023-06-14T10:28:57;3.40;;;2.38;;
1545;SDS011;766;51.502;9.752;2023-06-14T10:31:42;3.05;;;2.28;;
1545;SDS011;766;51.502;9.752;2023-06-14T10:34:12;8.38;;;2.55;;
1545;SDS011;766;51.502;9.752;2023-06-14T10:37:01;4.25;;;2.13;;
1545;SDS011;766;51.502;9.752;2023-06-14T10:39:39;3.13;;;2.80;;
1545;SDS011;766;51.502;9.752;2023-06-14T10:42:11;2.42;;;2.22;;
1545;SDS011;766;51.502;9.752;2023-06-14T10:44:41;3.90;;;2.60;;
1545;SDS011;766;51.502;9.752;2023-06-14T10:47:20;4.43;;;1.90;;
1545;SDS011;766;51.502;9.752;2023-06-14T10:49:52;3.70;;;2.75;;
1545;SDS011;766;51.502;9.752;2023-06-14T10:52:24;3.88;;;2.25;;
1545;SDS011;766;51.502;9.752;2023-06-14T10:55:02;7.85;;;2.70;;
1545;SDS011;766;51.502;9.752;2023-06-14T10:57:33;20.50;;;3.67;;
1545;SDS011;766;51.502;9.752;2023-06-14T11:00:05;9.40;;;2.83;;
1545;SDS011;766;51.502;9.752;2023-06-14T11:02:50;5.95;;;2.30;;
1545;SDS011;766;51.502;9.752;2023-06-14T11:05:48;5.63;;;2.30;;
1545;SDS011;766;51.502;9.752;2023-06-14T11:11:39;3.63;;;2.45;;
1545;SDS011;766;51.502;9.752;2023-06-14T11:14:10;4.88;;;2.15;;
1545;SDS011;766;51.502;9.752;2023-06-14T11:16:39;3.28;;;2.20;;
1545;SDS011;766;51.502;9.752;2023-06-14T11:19:08;5.43;;;2.22;;
1545;SDS011;766;51.502;9.752;2023-06-14T11:21:40;3.17;;;2.33;;
1545;SDS011;766;51.502;9.752;2023-06-14T11:24:09;2.40;;;2.05;;
1545;SDS011;766;51.502;9.752;2023-06-14T11:26:39;3.22;;;2.38;;
1545;SDS011;766;51.502;9.752;2023-06-14T11:29:08;2.67;;;2.03;;
1545;SDS011;766;51.502;9.752;2023-06-14T11:31:42;2.30;;;2.10;;
1545;SDS011;766;51.502;9.752;2023-06-14T11:34:13;4.57;;;2.25;;
1545;SDS011;766;51.502;9.752;2023-06-14T11:36:42;4.75;;;2.35;;
1545;SDS011;766;51.502;9.752;2023-06-14T11:39:12;5.30;;;2.10;;
1545;SDS011;766;51.502;9.752;2023-06-14T11:41:41;3.95;;;2.00;;
1545;SDS011;766;51.502;9.752;2023-06-14T11:44:11;2.33;;;2.10;;
1545;SDS011;766;51.502;9.752;2023-06-14T11:46:40;5.40;;;2.40;;
1545;SDS011;766;51.502;9.752;2023-06-14T11:49:08;3.20;;;2.20;;
1545;SDS011;766;51.502;9.752;2023-06-14T11:51:38;4.70;;;2.25;;
1545;SDS011;766;51.502;9.752;2023-06-14T11:54:06;9.68;;;2.90;;
1545;SDS011;766;51.502;9.752;2023-06-14T11:56:36;2.17;;;1.73;;
1545;SDS011;766;51.502;9.752;2023-06-14T11:59:05;5.13;;;2.22;;
1545;SDS011;766;51.502;9.752;2023-06-14T12:01:37;6.13;;;2.00;;
1545;SDS011;766;51.502;9.752;2023-06-14T12:04:06;4.82;;;2.05;;
1545;SDS011;766;51.502;9.752;2023-06-14T12:06:35;2.53;;;1.77;;
1545;SDS011;766;51.502;9.752;2023-06-14T12:09:08;3.28;;;1.88;;
1545;SDS011;766;51.502;9.752;2023-06-14T12:11:40;5.88;;;1.75;;
1545;SDS011;766;51.502;9.752;2023-06-14T12:14:12;3.53;;;2.05;;
1545;SDS011;766;51.502;9.752;2023-06-14T12:16:40;2.42;;;1.70;;
1545;SDS011;766;51.502;9.752;2023-06-14T12:19:12;4.72;;;1.45;;
1545;SDS011;766;51.502;9.752;2023-06-14T12:21:42;1.85;;;1.73;;
1545;SDS011;766;51.502;9.752;2023-06-14T12:24:16;3.25;;;1.88;;
1545;SDS011;766;51.502;9.752;2023-06-14T12:26:45;5.50;;;1.80;;
1545;SDS011;766;51.502;9.752;2023-06-14T12:29:14;1.80;;;1.67;;
1545;SDS011;766;51.502;9.752;2023-06-14T12:31:42;5.13;;;1.85;;
1545;SDS011;766;51.502;9.752;2023-06-14T12:34:11;2.40;;;1.50;;
1545;SDS011;766;51.502;9.752;2023-06-14T12:36:39;3.33;;;2.13;;
1545;SDS011;766;51.502;9.752;2023-06-14T12:39:11;4.13;;;1.65;;
1545;SDS011;766;51.502;9.752;2023-06-14T12:41:41;3.78;;;2.20;;
1545;SDS011;766;51.502;9.752;2023-06-14T12:44:10;6.65;;;2.20;;
1545;SDS011;766;51.502;9.752;2023-06-14T12:46:39;3.40;;;1.58;;
1545;SDS011;766;51.502;9.752;2023-06-14T12:49:08;3.53;;;2.20;;
1545;SDS011;766;51.502;9.752;2023-06-14T12:51:38;4.20;;;1.60;;
1545;SDS011;766;51.502;9.752;2023-06-14T12:54:07;1.92;;;1.70;;
1545;SDS011;766;51.502;9.752;2023-06-14T12:56:35;3.53;;;1.50;;
1545;SDS011;766;51.502;9.752;2023-06-14T12:59:05;1.77;;;1.67;;
1545;SDS011;766;51.502;9.752;2023-06-14T13:01:34;4.20;;;1.70;;
1545;SDS011;766;51.502;9.752;2023-06-14T13:04:02;2.95;;;1.80;;
1545;SDS011;766;51.502;9.752;2023-06-14T13:06:31;1.63;;;1.40;;
1545;SDS011;766;51.502;9.752;2023-06-14T13:09:00;1.90;;;1.70;;
1545;SDS011;766;51.502;9.752;2023-06-14T13:11:30;3.78;;;1.42;;
1545;SDS011;766;51.502;9.752;2023-06-14T13:13:58;4.30;;;1.65;;
1545;SDS011;766;51.502;9.752;2023-06-14T13:16:44;3.88;;;1.80;;
1545;SDS011;766;51.502;9.752;2023-06-14T13:19:13;6.90;;;1.42;;
1545;SDS011;766;51.502;9.752;2023-06-14T13:21:41;2.63;;;1.77;;
1545;SDS011;766;51.502;9.752;2023-06-14T13:24:10;6.65;;;1.67;;
1545;SDS011;766;51.502;9.752;2023-06-14T13:26:38;17.45;;;1.95;;
1545;SDS011;766;51.502;9.752;2023-06-14T13:29:06;1.90;;;1.60;;
1545;SDS011;766;51.502;9.752;2023-06-14T13:31:35;1.58;;;1.48;;
1545;SDS011;766;51.502;9.752;2023-06-14T13:34:05;1.60;;;1.48;;
1545;SDS011;766;51.502;9.752;2023-06-14T13:36:34;2.30;;;1.63;;
1545;SDS011;766;51.502;9.752;2023-06-14T13:39:02;6.93;;;1.50;;
1545;SDS011;766;51.502;9.752;2023-06-14T13:41:31;1.63;;;1.42;;
1545;SDS011;766;51.502;9.752;2023-06-14T13:44:01;3.90;;;1.60;;
1545;SDS011;766;51.502;9.752;2023-06-14T13:46:31;2.88;;;1.60;;
1545;SDS011;766;51.502;9.752;2023-06-14T13:48:59;1.92;;;1.55;;
1545;SDS011;766;51.502;9.752;2023-06-14T13:51:30;2.45;;;1.50;;
1545;SDS011;766;51.502;9.752;2023-06-14T13:53:59;2.17;;;1.63;;
1545;SDS011;766;51.502;9.752;2023-06-14T13:56:28;4.10;;;1.50;;
1545;SDS011;766;51.502;9.752;2023-06-14T13:58:57;1.63;;;1.38;;
1545;SDS011;766;51.502;9.752;2023-06-14T14:01:26;1.80;;;1.60;;
1545;SDS011;766;51.502;9.752;2023-06-14T14:03:55;2.30;;;1.83;;
1545;SDS011;766;51.502;9.752;2023-06-14T14:06:25;1.92;;;1.73;;
1545;SDS011;766;51.502;9.752;2023-06-14T14:08:55;3.42;;;1.55;;
1545;SDS011;766;51.502;9.752;2023-06-14T14:11:24;1.88;;;1.33;;
1545;SDS011;766;51.502;9.752;2023-06-14T14:13:52;6.03;;;1.70;;
1545;SDS011;766;51.502;9.752;2023-06-14T14:16:21;4.38;;;1.75;;
1545;SDS011;766;51.502;9.752;2023-06-14T14:18:49;4.10;;;1.70;;
1545;SDS011;766;51.502;9.752;2023-06-14T14:21:18;4.93;;;1.65;;
1545;SDS011;766;51.502;9.752;2023-06-14T14:23:47;3.22;;;1.65;;
1545;SDS011;766;51.502;9.752;2023-06-14T14:26:17;4.20;;;1.80;;
1545;SDS011;766;51.502;9.752;2023-06-14T14:28:46;1.70;;;1.60;;
1545;SDS011;766;51.502;9.752;2023-06-14T14:31:15;2.00;;;1.52;;
1545;SDS011;766;51.502;9.752;2023-06-14T14:33:43;2.75;;;1.50;;
1545;SDS011;766;51.502;9.752;2023-06-14T14:36:12;4.28;;;1.83;;
1545;SDS011;766;51.502;9.752;2023-06-14T14:38:40;3.17;;;1.40;;
1545;SDS011;766;51.502;9.752;2023-06-14T14:41:27;5.53;;;1.40;;
1545;SDS011;766;51.502;9.752;2023-06-14T14:43:56;2.58;;;1.40;;
1545;SDS011;766;51.502;9.752;2023-06-14T14:46:25;3.13;;;1.60;;
1545;SDS011;766;51.502;9.752;2023-06-14T14:48:56;1.90;;;1.50;;
1545;SDS011;766;51.502;9.752;2023-06-14T14:51:43;2.38;;;1.60;;
1545;SDS011;766;51.502;9.752;2023-06-14T14:54:11;3.55;;;1.50;;
1545;SDS011;766;51.502;9.752;2023-06-14T14:56:41;3.60;;;1.38;;
1545;SDS011;766;51.502;9.752;2023-06-14T14:59:10;1.90;;;1.30;;
1545;SDS011;766;51.502;9.752;2023-06-14T15:02:26;2.33;;;1.40;;
1545;SDS011;766;51.502;9.752;2023-06-14T15:04:54;1.65;;;1.45;;
1545;SDS011;766;51.502;9.752;2023-06-14T15:07:27;2.78;;;1.50;;
1545;SDS011;766;51.502;9.752;2023-06-14T15:09:55;5.57;;;1.60;;
1545;SDS011;766;51.502;9.752;2023-06-14T15:12:25;2.10;;;1.90;;
1545;SDS011;766;51.502;9.752;2023-06-14T15:14:57;5.30;;;1.75;;
1545;SDS011;766;51.502;9.752;2023-06-14T15:17:26;1.63;;;1.50;;
1545;SDS011;766;51.502;9.752;2023-06-14T15:19:54;4.28;;;1.60;;
1545;SDS011;766;51.502;9.752;2023-06-14T15:22:23;4.30;;;2.00;;
1545;SDS011;766;51.502;9.752;2023-06-14T15:24:51;2.72;;;1.73;;
1545;SDS011;766;51.502;9.752;2023-06-14T15:27:19;2.75;;;1.90;;
1545;SDS011;766;51.502;9.752;2023-06-14T15:29:49;2.20;;;1.70;;
1545;SDS011;766;51.502;9.752;2023-06-14T15:32:18;2.28;;;1.88;;
1545;SDS011;766;51.502;9.752;2023-06-14T15:34:46;4.13;;;1.52;;
1545;SDS011;766;51.502;9.752;2023-06-14T15:37:15;2.60;;;2.00;;
1545;SDS011;766;51.502;9.752;2023-06-14T15:39:44;2.22;;;1.70;;
1545;SDS011;766;51.502;9.752;2023-06-14T15:42:12;3.75;;;1.50;;
1545;SDS011;766;51.502;9.752;2023-06-14T15:44:41;4.53;;;2.00;;
1545;SDS011;766;51.502;9.752;2023-06-14T15:47:10;3.50;;;2.15;;
1545;SDS011;766;51.502;9.752;2023-06-14T15:49:39;2.10;;;1.90;;
1545;SDS011;766;51.502;9.752;2023-06-14T15:52:08;6.53;;;1.85;;
1545;SDS011;766;51.502;9.752;2023-06-14T15:54:36;3.70;;;2.15;;
1545;SDS011;766;51.502;9.752;2023-06-14T15:57:04;2.28;;;1.95;;